Time;durP1;ratioP1;P1;durP2;ratioP2;P2;SDS_P1;SDS_P2;PMS_P1;PMS_P2;Temp;Humidity;BMP_temperature;BMP_pressure;BME280_temperature;BME280_humidity;BME280_pressure;Samples;Min_cycle;Max_cycle;Signal;HPM_P1;HPM_P2
2022/02/28 00:00:30;;;;;;;7.93;4.25;;;7.70;67.30;;;;;;4974386;28;20027;-66
2022/02/28 00:02:57;;;;;;;8.93;4.13;;;7.70;67.30;;;;;;4974307;28;20034;-68
2022/02/28 00:05:23;;;;;;;8.63;3.83;;;7.60;67.50;;;;;;4974168;28;20109;-67
2022/02/28 00:07:49;;;;;;;6.70;3.80;;;7.60;67.60;;;;;;4974085;28;20034;-66
2022/02/28 00:10:16;;;;;;;6.85;3.97;;;7.60;68.00;;;;;;4974098;28;20514;-70
2022/02/28 00:12:43;;;;;;;6.95;3.80;;;7.60;67.90;;;;;;4974342;28;20023;-67
2022/02/28 00:15:10;;;;;;;7.65;3.80;;;7.50;67.70;;;;;;4974324;28;20026;-67
2022/02/28 00:17:36;;;;;;;6.22;3.70;;;7.50;67.90;;;;;;4974163;28;20030;-67
2022/02/28 00:20:05;;;;;;;7.05;3.85;;;7.50;68.10;;;;;;4973986;28;20033;-67
2022/02/28 00:22:32;;;;;;;8.18;4.00;;;7.50;67.40;;;;;;4974014;28;20034;-67
2022/02/28 00:24:58;;;;;;;5.72;3.55;;;7.60;67.60;;;;;;4974159;28;20097;-67
2022/02/28 00:27:24;;;;;;;5.68;3.30;;;7.60;67.80;;;;;;4974164;28;20046;-67
2022/02/28 00:29:49;;;;;;;6.35;3.83;;;7.60;67.70;;;;;;4956845;28;20042;-68
2022/02/28 00:32:15;;;;;;;8.60;4.18;;;7.60;68.00;;;;;;4974379;28;20081;-67
2022/02/28 00:34:41;;;;;;;7.47;4.15;;;7.60;68.00;;;;;;4974129;28;20041;-68
2022/02/28 00:37:06;;;;;;;7.05;3.90;;;7.50;68.10;;;;;;4974209;28;20089;-67
2022/02/28 00:39:32;;;;;;;8.98;3.75;;;7.50;68.10;;;;;;4973656;28;20562;-68
2022/02/28 00:41:58;;;;;;;6.93;3.90;;;7.40;68.30;;;;;;4973988;28;20031;-66
2022/02/28 00:44:24;;;;;;;8.05;3.88;;;7.40;68.40;;;;;;4973894;28;20030;-68
2022/02/28 00:46:49;;;;;;;6.05;4.10;;;7.40;68.10;;;;;;4973795;28;20549;-66
2022/02/28 00:49:15;;;;;;;6.30;3.78;;;7.40;68.30;;;;;;4973385;28;20034;-66
2022/02/28 00:51:41;;;;;;;7.80;4.30;;;7.40;68.30;;;;;;4973550;28;20023;-67
2022/02/28 00:54:06;;;;;;;6.10;4.00;;;7.40;68.20;;;;;;4973591;28;20031;-68
2022/02/28 00:56:32;;;;;;;7.70;4.20;;;7.40;69.10;;;;;;4973884;28;20022;-66
2022/02/28 00:58:58;;;;;;;8.63;3.83;;;7.40;68.30;;;;;;4973470;28;20035;-67
2022/02/28 01:01:24;;;;;;;7.38;3.80;;;7.40;68.10;;;;;;4973539;28;20090;-66
2022/02/28 01:03:50;;;;;;;7.63;4.40;;;7.40;68.30;;;;;;4973601;28;20034;-66
2022/02/28 01:06:16;;;;;;;6.70;4.00;;;7.40;68.50;;;;;;4956508;28;20035;-68
2022/02/28 01:08:41;;;;;;;7.10;3.88;;;7.40;68.30;;;;;;4956117;28;20468;-66
2022/02/28 01:11:07;;;;;;;8.40;4.72;;;7.40;68.10;;;;;;4977034;28;20105;-67
2022/02/28 01:13:33;;;;;;;7.35;4.22;;;7.40;68.10;;;;;;4977365;28;20351;-66
2022/02/28 01:15:59;;;;;;;6.07;4.03;;;7.40;68.30;;;;;;4977327;28;20077;-68
2022/02/28 01:18:24;;;;;;;5.90;3.97;;;7.40;68.20;;;;;;4977260;28;20026;-67
2022/02/28 01:20:51;;;;;;;7.68;4.63;;;7.40;68.60;;;;;;4977398;28;20372;-66
2022/02/28 01:23:18;;;;;;;9.75;4.43;;;7.40;68.30;;;;;;4977317;28;20027;-67
2022/02/28 01:25:43;;;;;;;8.27;3.90;;;7.40;68.20;;;;;;4977106;28;20042;-67
2022/02/28 01:28:10;;;;;;;7.22;4.15;;;7.40;68.30;;;;;;4976940;28;20027;-68
2022/02/28 01:30:36;;;;;;;8.00;4.72;;;7.40;68.40;;;;;;4977376;28;20035;-69
2022/02/28 01:33:03;;;;;;;8.02;4.28;;;7.40;68.70;;;;;;4977222;28;20102;-68
2022/02/28 01:35:29;;;;;;;8.27;4.60;;;7.40;68.50;;;;;;4977133;28;20166;-69
2022/02/28 01:37:54;;;;;;;6.20;4.20;;;7.40;68.70;;;;;;4976781;28;20045;-66
2022/02/28 01:40:20;;;;;;;7.43;4.53;;;7.40;68.70;;;;;;4976808;28;20559;-68
2022/02/28 01:42:46;;;;;;;7.85;3.95;;;7.40;68.80;;;;;;4976898;28;20480;-67
2022/02/28 01:45:17;;;;;;;6.00;3.90;;;7.40;68.90;;;;;;4976704;28;20475;-68
2022/02/28 01:47:43;;;;;;;7.18;4.10;;;7.40;68.50;;;;;;4976652;28;20077;-67
2022/02/28 01:50:10;;;;;;;8.20;4.00;;;7.30;68.70;;;;;;4976964;28;20066;-67
2022/02/28 01:52:36;;;;;;;8.63;4.35;;;7.30;69.20;;;;;;4976999;28;20050;-69
2022/02/28 01:55:02;;;;;;;8.23;4.15;;;7.30;68.60;;;;;;4976844;28;20027;-68
2022/02/28 01:57:28;;;;;;;6.55;4.00;;;7.30;68.80;;;;;;4976731;28;20492;-67
2022/02/28 01:59:54;;;;;;;8.65;3.95;;;7.30;68.70;;;;;;4976428;28;20026;-68
2022/02/28 02:02:19;;;;;;;7.55;4.20;;;7.30;68.80;;;;;;4976390;28;20057;-68
2022/02/28 02:04:45;;;;;;;6.63;3.90;;;7.30;68.80;;;;;;4976469;28;20480;-68
2022/02/28 02:07:11;;;;;;;7.57;4.13;;;7.30;68.80;;;;;;4976508;28;20380;-68
2022/02/28 02:09:37;;;;;;;8.77;3.97;;;7.30;68.80;;;;;;4976470;28;20074;-68
2022/02/28 02:12:05;;;;;;;7.40;4.45;;;7.30;68.70;;;;;;4976550;28;20456;-67
2022/02/28 02:14:32;;;;;;;5.90;3.83;;;7.30;68.80;;;;;;4976352;28;20035;-68
2022/02/28 02:16:58;;;;;;;7.47;4.32;;;7.30;68.70;;;;;;4976167;28;20062;-67
2022/02/28 02:19:24;;;;;;;8.13;4.05;;;7.30;68.90;;;;;;4976306;28;20027;-67
2022/02/28 02:21:50;;;;;;;7.70;4.45;;;7.30;68.90;;;;;;4976074;28;20388;-67
2022/02/28 02:24:16;;;;;;;6.85;3.83;;;7.30;68.90;;;;;;4976246;28;20027;-67
2022/02/28 02:26:41;;;;;;;6.00;3.75;;;7.30;68.90;;;;;;4976042;28;20023;-68
2022/02/28 02:29:07;;;;;;;8.68;4.75;;;7.30;69.00;;;;;;4976025;28;20031;-68
2022/02/28 02:31:33;;;;;;;7.32;4.10;;;7.30;69.10;;;;;;4976064;28;20026;-67
2022/02/28 02:33:58;;;;;;;5.65;3.80;;;7.30;68.80;;;;;;4976142;28;20027;-67
2022/02/28 02:36:24;;;;;;;9.23;4.28;;;7.30;68.80;;;;;;4975839;28;20111;-68
2022/02/28 02:38:53;;;;;;;7.10;4.13;;;7.30;68.60;;;;;;4975789;28;20416;-68
2022/02/28 02:41:19;;;;;;;9.52;4.65;;;7.20;68.70;;;;;;4975847;28;20046;-68
2022/02/28 02:43:45;;;;;;;6.30;4.20;;;7.20;68.90;;;;;;4975707;28;20030;-66
2022/02/28 02:46:11;;;;;;;9.75;5.72;;;7.20;68.90;;;;;;4975979;28;20030;-67
2022/02/28 02:48:37;;;;;;;6.35;4.22;;;7.20;68.90;;;;;;4975712;28;20089;-67
2022/02/28 02:51:03;;;;;;;8.75;4.30;;;7.20;68.90;;;;;;4975699;28;20035;-66
2022/02/28 02:53:29;;;;;;;7.10;4.15;;;7.10;68.70;;;;;;4975785;28;20031;-66
2022/02/28 02:55:55;;;;;;;7.05;4.03;;;7.10;68.90;;;;;;4975630;28;20511;-65
2022/02/28 02:58:21;;;;;;;7.18;4.57;;;7.10;68.90;;;;;;4975375;28;20031;-66
2022/02/28 03:00:52;;;;;;;8.27;4.72;;;7.10;68.90;;;;;;4975710;28;20588;-66
2022/02/28 03:03:19;;;;;;;7.85;4.40;;;7.10;68.80;;;;;;4975880;28;20061;-67
2022/02/28 03:05:46;;;;;;;9.10;4.43;;;7.10;68.70;;;;;;4976215;28;20522;-67
2022/02/28 03:08:13;;;;;;;6.10;4.15;;;7.10;68.70;;;;;;4976611;28;20054;-67
2022/02/28 03:10:39;;;;;;;8.00;4.57;;;7.00;68.80;;;;;;4976282;28;20042;-68
2022/02/28 03:13:05;;;;;;;8.15;4.75;;;7.10;69.00;;;;;;4975221;28;20031;-68
2022/02/28 03:15:31;;;;;;;6.90;4.20;;;7.10;69.00;;;;;;4975324;28;20429;-67
2022/02/28 03:17:56;;;;;;;8.00;4.25;;;7.10;69.50;;;;;;4975142;28;20477;-67
2022/02/28 03:20:22;;;;;;;7.65;4.30;;;7.10;68.50;;;;;;4975230;28;20023;-67
2022/02/28 03:22:49;;;;;;;7.40;4.60;;;7.10;68.60;;;;;;4975387;28;20098;-67
2022/02/28 03:25:15;;;;;;;8.93;4.05;;;7.00;68.30;;;;;;4975061;28;20027;-68
2022/02/28 03:27:41;;;;;;;8.77;4.47;;;7.10;68.60;;;;;;4974805;28;20039;-67
2022/02/28 03:30:08;;;;;;;8.85;4.53;;;7.10;68.70;;;;;;4974821;28;20039;-67
2022/02/28 03:32:34;;;;;;;7.28;4.38;;;7.10;68.80;;;;;;4974122;28;20039;-67
2022/02/28 03:35:01;;;;;;;8.00;4.60;;;7.00;68.60;;;;;;4974905;28;20170;-67
2022/02/28 03:37:26;;;;;;;7.57;4.20;;;7.00;68.80;;;;;;4974927;28;20023;-68
2022/02/28 03:39:52;;;;;;;7.03;4.20;;;7.00;68.80;;;;;;4974675;28;20054;-66
2022/02/28 03:42:17;;;;;;;6.20;4.28;;;6.90;69.00;;;;;;4974803;28;20105;-68
2022/02/28 03:44:43;;;;;;;9.00;4.50;;;6.90;69.00;;;;;;4974613;28;20046;-67
2022/02/28 03:47:09;;;;;;;9.10;4.22;;;6.90;69.10;;;;;;4957558;28;20112;-66
2022/02/28 03:49:34;;;;;;;6.85;4.18;;;6.90;69.00;;;;;;4974472;28;20039;-67
2022/02/28 03:52:00;;;;;;;8.20;4.60;;;6.90;69.30;;;;;;4974687;28;20109;-67
2022/02/28 03:54:26;;;;;;;8.20;4.95;;;6.90;69.20;;;;;;4974552;28;20378;-66
2022/02/28 03:56:51;;;;;;;8.10;4.43;;;6.80;69.00;;;;;;4974475;28;20097;-66
2022/02/28 03:59:17;;;;;;;8.10;4.45;;;6.80;68.90;;;;;;4974389;28;20384;-66
2022/02/28 04:01:43;;;;;;;8.63;4.47;;;6.90;69.20;;;;;;4974537;28;20034;-67
2022/02/28 04:04:10;;;;;;;7.85;4.30;;;6.80;69.00;;;;;;4974505;28;20027;-66
2022/02/28 04:06:36;;;;;;;6.93;4.60;;;6.90;68.90;;;;;;4974484;28;20014;-68
2022/02/28 04:09:04;;;;;;;8.57;4.72;;;6.80;69.00;;;;;;4974181;28;20027;-67
2022/02/28 04:11:30;;;;;;;7.40;4.57;;;6.80;69.00;;;;;;4974300;28;20034;-67
2022/02/28 04:13:57;;;;;;;7.07;4.20;;;6.80;69.10;;;;;;4956982;28;20050;-66
2022/02/28 04:16:23;;;;;;;10.05;4.68;;;6.90;69.10;;;;;;4974102;28;20062;-67
2022/02/28 04:18:49;;;;;;;6.95;4.25;;;6.90;69.10;;;;;;4974265;28;20083;-68
2022/02/28 04:21:14;;;;;;;7.60;4.45;;;6.90;69.20;;;;;;4974139;28;20031;-68
2022/02/28 04:23:40;;;;;;;7.60;3.85;;;6.80;68.90;;;;;;4974034;28;20409;-68
2022/02/28 04:26:06;;;;;;;8.13;4.63;;;6.80;69.00;;;;;;4973895;28;20034;-69
2022/02/28 04:28:31;;;;;;;10.23;4.32;;;6.80;69.10;;;;;;4973730;28;20035;-69
2022/02/28 04:30:57;;;;;;;7.65;5.05;;;6.80;68.90;;;;;;4974515;28;20063;-69
2022/02/28 04:33:22;;;;;;;7.60;4.60;;;6.80;69.20;;;;;;4974313;28;20026;-68
2022/02/28 04:35:48;;;;;;;9.98;4.88;;;6.80;68.80;;;;;;4974173;28;20030;-68
2022/02/28 04:38:14;;;;;;;8.23;4.45;;;6.80;68.80;;;;;;4973901;28;20045;-68
2022/02/28 04:40:40;;;;;;;7.32;4.55;;;6.80;69.00;;;;;;4973006;28;20054;-68
2022/02/28 04:43:05;;;;;;;9.18;4.97;;;6.80;68.80;;;;;;4973905;28;20026;-67
2022/02/28 04:45:32;;;;;;;7.13;4.63;;;6.80;68.80;;;;;;4973974;28;20085;-68
2022/02/28 04:47:57;;;;;;;10.00;4.57;;;6.80;69.00;;;;;;4973876;28;20035;-68
2022/02/28 04:50:23;;;;;;;8.30;4.80;;;6.80;68.90;;;;;;4967229;28;20085;-69
2022/02/28 04:52:49;;;;;;;9.32;4.70;;;6.80;69.00;;;;;;4971930;28;20014;-68
2022/02/28 04:55:15;;;;;;;8.77;4.90;;;6.80;68.90;;;;;;4973704;28;20071;-68
2022/02/28 04:57:44;;;;;;;7.35;4.90;;;6.80;69.20;;;;;;4973742;28;20034;-67
2022/02/28 05:00:11;;;;;;;6.38;4.30;;;6.70;69.10;;;;;;4973660;28;20027;-66
2022/02/28 05:02:38;;;;;;;7.63;4.95;;;6.70;69.30;;;;;;4972570;28;20527;-68
2022/02/28 05:05:04;;;;;;;10.10;4.78;;;6.70;69.10;;;;;;4973479;28;20027;-69
2022/02/28 05:07:30;;;;;;;7.75;4.90;;;6.70;69.40;;;;;;4973674;28;20468;-69
2022/02/28 05:09:57;;;;;;;12.45;5.13;;;6.70;69.40;;;;;;4973613;28;20045;-67
2022/02/28 05:12:23;;;;;;;7.78;4.68;;;6.70;69.40;;;;;;4973566;28;20081;-67
2022/02/28 05:14:49;;;;;;;8.23;5.22;;;6.70;69.40;;;;;;4973552;28;20027;-67
2022/02/28 05:17:15;;;;;;;11.25;4.88;;;6.70;69.80;;;;;;4973575;28;20117;-66
2022/02/28 05:19:41;;;;;;;9.30;5.15;;;6.70;69.80;;;;;;4973483;28;20134;-67
2022/02/28 05:22:07;;;;;;;9.38;4.80;;;6.70;69.80;;;;;;4973524;28;20031;-67
2022/02/28 05:24:34;;;;;;;9.40;5.10;;;6.60;70.00;;;;;;4973623;28;20027;-68
2022/02/28 05:26:59;;;;;;;8.20;5.50;;;6.60;69.90;;;;;;4973488;28;20109;-66
2022/02/28 05:29:26;;;;;;;8.88;5.93;;;6.60;69.90;;;;;;4973387;28;20476;-68
2022/02/28 05:31:52;;;;;;;11.68;6.32;;;6.60;70.40;;;;;;4973508;28;20034;-66
2022/02/28 05:34:17;;;;;;;13.15;6.20;;;6.50;70.20;;;;;;4973698;28;20514;-67
2022/02/28 05:36:43;;;;;;;9.82;6.15;;;6.50;70.30;;;;;;4973546;28;20027;-67
2022/02/28 05:39:08;;;;;;;12.65;6.57;;;6.50;70.50;;;;;;4973252;28;20026;-67
2022/02/28 05:41:34;;;;;;;15.18;6.00;;;6.50;70.40;;;;;;4973499;28;20524;-66
2022/02/28 05:44:00;;;;;;;9.38;5.85;;;6.50;71.10;;;;;;4973418;28;20437;-68
2022/02/28 05:46:25;;;;;;;10.52;5.78;;;6.50;70.90;;;;;;4973440;28;20019;-67
2022/02/28 05:48:51;;;;;;;11.35;5.93;;;6.50;70.60;;;;;;4973155;28;20038;-67
2022/02/28 05:51:17;;;;;;;9.20;5.38;;;6.50;71.10;;;;;;4973211;28;20035;-68
2022/02/28 05:53:42;;;;;;;9.50;5.65;;;6.50;71.60;;;;;;4973342;28;20027;-67
2022/02/28 05:56:08;;;;;;;10.15;6.20;;;6.50;71.80;;;;;;4974970;28;20029;-67
2022/02/28 05:58:34;;;;;;;12.85;7.93;;;6.50;71.40;;;;;;4976848;28;20181;-67
2022/02/28 06:01:00;;;;;;;11.68;5.80;;;6.50;71.80;;;;;;4976788;28;20031;-68
2022/02/28 06:03:26;;;;;;;9.43;5.90;;;6.50;71.20;;;;;;4976623;28;20468;-67
2022/02/28 06:05:51;;;;;;;16.02;5.28;;;6.50;71.50;;;;;;4976242;28;20499;-67
2022/02/28 06:08:17;;;;;;;12.45;5.97;;;6.50;71.20;;;;;;4976016;28;20114;-66
2022/02/28 06:10:42;;;;;;;10.40;6.07;;;6.50;71.40;;;;;;4976052;28;20144;-67
2022/02/28 06:13:08;;;;;;;10.93;5.32;;;6.50;71.20;;;;;;4976276;28;20098;-66
2022/02/28 06:15:34;;;;;;;13.02;5.90;;;6.50;71.30;;;;;;4976279;28;20042;-68
2022/02/28 06:18:00;;;;;;;10.90;6.38;;;6.50;71.60;;;;;;4976226;28;20067;-67
2022/02/28 06:20:27;;;;;;;9.40;5.68;;;6.50;71.50;;;;;;4976108;28;20030;-68
2022/02/28 06:22:53;;;;;;;13.40;6.30;;;6.50;71.70;;;;;;4976028;28;20031;-67
2022/02/28 06:25:19;;;;;;;12.18;6.07;;;6.60;72.00;;;;;;4976108;28;20117;-67
2022/02/28 06:27:45;;;;;;;10.63;5.47;;;6.60;71.70;;;;;;4975824;28;20492;-67
2022/02/28 06:30:11;;;;;;;10.90;6.10;;;6.60;71.40;;;;;;4975752;28;20050;-66
2022/02/28 06:32:37;;;;;;;10.10;5.55;;;6.70;71.80;;;;;;4958479;28;20038;-67
2022/02/28 06:35:04;;;;;;;11.15;5.78;;;6.70;71.00;;;;;;4975785;28;20030;-67
2022/02/28 06:37:30;;;;;;;12.55;5.75;;;6.70;71.00;;;;;;4975793;28;20034;-67
2022/02/28 06:39:55;;;;;;;11.57;5.53;;;6.80;70.90;;;;;;4975317;28;20109;-67
2022/02/28 06:42:21;;;;;;;9.70;5.88;;;6.80;70.80;;;;;;4975556;28;20030;-67
2022/02/28 06:44:47;;;;;;;14.43;6.35;;;6.90;70.90;;;;;;4975919;28;20031;-66
2022/02/28 06:47:13;;;;;;;14.07;6.18;;;6.90;70.40;;;;;;4975635;28;20439;-68
2022/02/28 06:49:38;;;;;;;14.55;6.10;;;7.00;70.10;;;;;;4975367;28;20031;-66
2022/02/28 06:52:05;;;;;;;15.15;6.10;;;7.10;69.80;;;;;;4978146;28;20072;-68
2022/02/28 06:54:30;;;;;;;12.90;5.78;;;7.20;69.60;;;;;;4993459;28;20038;-69
2022/02/28 06:56:57;;;;;;;12.75;5.95;;;7.30;69.40;;;;;;4976662;28;20461;-69
2022/02/28 06:59:23;;;;;;;15.40;6.72;;;7.40;69.90;;;;;;4980844;28;20550;-69
2022/02/28 07:01:49;;;;;;;9.18;5.47;;;7.60;69.40;;;;;;4994965;28;20077;-68
2022/02/28 07:04:15;;;;;;;10.52;5.78;;;7.80;69.00;;;;;;4994907;28;20030;-68
2022/02/28 07:06:40;;;;;;;11.95;5.72;;;7.90;68.50;;;;;;4994449;28;20033;-68
2022/02/28 07:09:07;;;;;;;14.40;5.85;;;8.00;68.00;;;;;;4994414;28;20112;-68
2022/02/28 07:11:34;;;;;;;20.02;6.22;;;8.20;68.00;;;;;;4994787;28;20061;-67
2022/02/28 07:14:01;;;;;;;15.75;6.07;;;8.30;67.40;;;;;;4986397;28;20029;-69
2022/02/28 07:16:27;;;;;;;12.43;6.05;;;8.50;67.90;;;;;;4994622;28;20356;-69
2022/02/28 07:18:52;;;;;;;11.60;6.07;;;8.70;67.50;;;;;;4994216;28;20410;-69
2022/02/28 07:21:19;;;;;;;16.38;6.10;;;8.80;67.30;;;;;;4994171;28;20087;-69
2022/02/28 07:23:45;;;;;;;13.18;6.07;;;9.00;67.10;;;;;;4991268;28;20030;-69
2022/02/28 07:26:10;;;;;;;16.60;6.20;;;9.10;66.60;;;;;;4994079;28;20034;-69
2022/02/28 07:28:36;;;;;;;11.68;6.15;;;9.30;66.60;;;;;;4993996;28;20431;-70
2022/02/28 07:31:02;;;;;;;16.25;6.35;;;9.30;66.00;;;;;;4994209;28;20062;-70
2022/02/28 07:33:28;;;;;;;15.98;6.10;;;9.40;66.10;;;;;;4994178;28;20073;-70
2022/02/28 07:35:53;;;;;;;10.75;5.93;;;9.50;65.30;;;;;;4994131;28;20022;-69
2022/02/28 07:38:19;;;;;;;12.70;6.50;;;9.50;65.30;;;;;;4994186;28;20030;-70
2022/02/28 07:40:45;;;;;;;11.02;6.22;;;9.60;65.50;;;;;;4994178;28;20637;-68
2022/02/28 07:43:11;;;;;;;12.30;5.93;;;9.60;64.50;;;;;;4994191;28;20030;-69
2022/02/28 07:45:36;;;;;;;13.77;6.30;;;9.70;64.80;;;;;;4994503;28;20030;-70
2022/02/28 07:48:03;;;;;;;15.65;6.65;;;9.80;64.50;;;;;;4987937;28;20049;-68
2022/02/28 07:50:28;;;;;;;15.18;6.40;;;9.90;64.10;;;;;;4974974;28;20165;-69
2022/02/28 07:52:55;;;;;;;12.35;6.03;;;10.00;63.20;;;;;;4974727;28;20126;-73
2022/02/28 07:55:21;;;;;;;15.40;6.22;;;9.90;62.40;;;;;;4974322;28;20030;-69
2022/02/28 07:57:46;;;;;;;11.88;5.43;;;10.00;62.50;;;;;;4974443;28;20041;-70
2022/02/28 08:00:13;;;;;;;13.43;7.05;;;10.00;61.40;;;;;;4974532;28;20063;-69
2022/02/28 08:02:39;;;;;;;10.88;5.65;;;10.10;61.30;;;;;;4974642;28;20471;-69
2022/02/28 08:05:05;;;;;;;9.65;5.13;;;10.30;61.00;;;;;;4974465;28;20022;-70
2022/02/28 08:07:31;;;;;;;10.38;5.72;;;10.20;59.70;;;;;;4974205;28;20030;-70
2022/02/28 08:09:57;;;;;;;14.15;5.53;;;10.10;59.70;;;;;;4974083;28;20027;-70
2022/02/28 08:12:25;;;;;;;10.40;5.05;;;10.10;59.80;;;;;;4974101;28;20023;-70
2022/02/28 08:14:51;;;;;;;10.75;5.55;;;10.10;59.70;;;;;;4974041;28;20039;-69
2022/02/28 08:17:16;;;;;;;10.85;5.00;;;10.10;59.80;;;;;;4973869;28;20107;-69
2022/02/28 08:19:42;;;;;;;13.15;5.63;;;10.10;59.40;;;;;;4956052;28;20350;-71
2022/02/28 08:22:08;;;;;;;10.82;5.22;;;10.10;59.60;;;;;;4973899;28;20049;-71
2022/02/28 08:24:33;;;;;;;11.05;5.15;;;10.20;60.00;;;;;;4974019;28;20030;-70
2022/02/28 08:26:59;;;;;;;7.32;4.45;;;10.20;59.70;;;;;;4973821;28;20030;-71
2022/02/28 08:29:25;;;;;;;8.10;4.45;;;10.20;59.00;;;;;;4955953;28;20070;-72
2022/02/28 08:31:50;;;;;;;7.88;4.82;;;10.20;58.40;;;;;;4973675;28;20033;-71
2022/02/28 08:34:17;;;;;;;8.55;4.30;;;10.20;59.30;;;;;;4973921;28;20038;-69
2022/02/28 08:36:43;;;;;;;10.55;4.32;;;10.30;58.70;;;;;;4973779;28;20465;-70
2022/02/28 08:39:09;;;;;;;7.97;4.47;;;10.40;58.60;;;;;;4973686;28;20038;-72
2022/02/28 08:41:36;;;;;;;9.63;3.60;;;10.40;58.20;;;;;;4973604;28;20126;-70
2022/02/28 08:44:02;;;;;;;8.20;3.63;;;10.50;57.20;;;;;;4973819;28;20038;-71
2022/02/28 08:46:28;;;;;;;5.05;2.90;;;10.50;56.90;;;;;;4973723;28;20134;-70
2022/02/28 08:48:53;;;;;;;5.82;2.80;;;10.60;55.70;;;;;;4973981;28;20462;-70
2022/02/28 08:51:19;;;;;;;8.65;3.25;;;10.70;55.70;;;;;;4956026;28;20029;-70
2022/02/28 08:53:45;;;;;;;7.53;3.50;;;10.70;55.10;;;;;;4973598;28;20562;-70
2022/02/28 08:56:11;;;;;;;4.60;2.50;;;10.70;55.30;;;;;;4973729;28;20440;-69
2022/02/28 08:58:36;;;;;;;6.82;3.05;;;10.70;54.70;;;;;;4956120;28;20470;-71
2022/02/28 09:01:02;;;;;;;6.32;2.92;;;10.80;54.50;;;;;;4973432;28;20461;-69
2022/02/28 09:03:28;;;;;;;8.63;2.67;;;10.80;54.40;;;;;;4973335;28;20030;-70
2022/02/28 09:05:54;;;;;;;10.25;2.92;;;10.90;53.90;;;;;;4973567;28;20117;-70
2022/02/28 09:08:19;;;;;;;5.20;2.60;;;10.90;53.60;;;;;;4973304;28;20042;-71
2022/02/28 09:10:45;;;;;;;6.85;2.95;;;11.00;52.90;;;;;;4973601;28;20066;-70
2022/02/28 09:13:11;;;;;;;6.95;2.90;;;11.00;52.60;;;;;;4973582;28;20035;-70
2022/02/28 09:15:37;;;;;;;7.47;2.95;;;11.10;52.80;;;;;;4973252;28;20066;-70
2022/02/28 09:18:07;;;;;;;11.18;2.90;;;11.20;52.80;;;;;;4973020;28;20025;-70
2022/02/28 09:20:34;;;;;;;7.03;3.30;;;11.30;52.20;;;;;;4973133;28;20030;-70
2022/02/28 09:22:59;;;;;;;9.95;3.13;;;11.30;52.30;;;;;;4973501;28;20476;-73
2022/02/28 09:25:25;;;;;;;6.60;3.15;;;11.40;51.90;;;;;;4973406;28;20027;-70
2022/02/28 09:27:51;;;;;;;5.07;2.60;;;11.50;51.80;;;;;;4973302;28;20038;-68
2022/02/28 09:30:17;;;;;;;5.07;2.78;;;11.50;51.10;;;;;;4973481;28;20046;-71
2022/02/28 09:32:43;;;;;;;6.43;2.97;;;11.60;50.80;;;;;;4977036;28;20033;-72
2022/02/28 09:35:09;;;;;;;5.78;2.67;;;11.60;50.50;;;;;;4977083;28;20023;-70
2022/02/28 09:37:34;;;;;;;6.57;2.83;;;11.70;49.70;;;;;;4959545;28;20030;-71
2022/02/28 09:40:00;;;;;;;4.75;2.30;;;11.70;49.10;;;;;;4977322;28;20051;-70
2022/02/28 09:42:27;;;;;;;4.18;2.30;;;11.80;48.40;;;;;;4976651;28;20132;-70
2022/02/28 09:44:53;;;;;;;5.60;2.80;;;11.90;47.50;;;;;;4976695;28;20027;-71
2022/02/28 09:47:20;;;;;;;4.60;2.50;;;12.00;47.40;;;;;;4977013;28;20400;-69
2022/02/28 09:49:47;;;;;;;4.47;2.47;;;12.00;46.30;;;;;;4976444;28;20137;-71
2022/02/28 09:52:13;;;;;;;6.43;2.95;;;12.10;46.30;;;;;;4976661;28;20023;-70
2022/02/28 09:54:39;;;;;;;5.03;2.83;;;12.20;46.10;;;;;;4976494;28;20031;-71
2022/02/28 09:57:08;;;;;;;6.85;2.95;;;12.30;46.30;;;;;;4959139;28;20123;-70
2022/02/28 09:59:36;;;;;;;6.60;2.38;;;12.30;46.30;;;;;;4959077;28;20113;-70
2022/02/28 10:02:02;;;;;;;7.03;2.28;;;12.40;45.20;;;;;;4976628;28;20057;-70
2022/02/28 10:04:28;;;;;;;8.25;2.67;;;12.50;45.30;;;;;;4976307;28;20451;-70
2022/02/28 10:06:54;;;;;;;5.32;2.65;;;12.60;45.10;;;;;;4976405;28;20027;-70
2022/02/28 10:09:20;;;;;;;7.15;2.70;;;12.60;44.70;;;;;;4976171;28;20033;-71
2022/02/28 10:11:51;;;;;;;6.82;3.00;;;12.70;44.70;;;;;;4976402;28;20026;-71
2022/02/28 10:14:17;;;;;;;7.18;2.80;;;12.80;44.40;;;;;;4976516;28;20026;-72
2022/02/28 10:16:57;;;;;;;5.90;2.70;;;12.80;44.20;;;;;;4976632;28;20027;-71
2022/02/28 10:19:25;;;;;;;5.93;2.88;;;12.90;45.70;;;;;;4976454;28;20384;-69
2022/02/28 10:21:56;;;;;;;5.78;2.50;;;13.00;44.10;;;;;;4976197;28;20463;-69
2022/02/28 10:24:30;;;;;;;7.20;2.88;;;13.00;43.90;;;;;;4976165;28;20404;-71
2022/02/28 10:26:59;;;;;;;4.85;2.55;;;13.10;43.80;;;;;;4975899;28;20023;-70
2022/02/28 10:29:28;;;;;;;6.20;2.55;;;13.10;43.60;;;;;;4975742;28;20031;-70
2022/02/28 10:31:59;;;;;;;8.10;2.75;;;13.20;43.20;;;;;;4975522;28;20027;-70
2022/02/28 10:34:27;;;;;;;5.80;2.53;;;13.30;43.80;;;;;;4975892;28;20531;-69
2022/02/28 10:37:01;;;;;;;4.90;2.60;;;13.30;43.50;;;;;;4975689;28;20027;-69
2022/02/28 10:39:38;;;;;;;5.45;2.72;;;13.40;43.50;;;;;;4975247;28;20033;-71
2022/02/28 10:42:10;;;;;;;6.68;2.60;;;13.50;43.00;;;;;;4975229;28;20026;-70
2022/02/28 10:44:36;;;;;;;4.18;2.50;;;13.50;42.50;;;;;;4975583;28;20027;-69
2022/02/28 10:47:05;;;;;;;4.93;2.90;;;13.50;42.60;;;;;;4975194;28;20464;-70
2022/02/28 10:49:33;;;;;;;5.63;2.80;;;13.60;42.10;;;;;;4975756;28;20043;-70
2022/02/28 10:52:05;;;;;;;5.68;2.42;;;13.70;42.20;;;;;;4975424;28;20121;-71
2022/02/28 10:54:38;;;;;;;6.80;2.90;;;13.70;41.40;;;;;;4975526;28;20117;-71
2022/02/28 10:57:09;;;;;;;4.80;2.22;;;13.80;40.80;;;;;;4957854;28;20023;-68
2022/02/28 10:59:44;;;;;;;4.60;2.67;;;13.80;41.90;;;;;;4957492;28;20502;-70
2022/02/28 11:02:24;;;;;;;7.30;3.70;;;13.90;41.90;;;;;;4975406;28;20086;-70
2022/02/28 11:05:07;;;;;;;5.32;2.80;;;13.90;41.40;;;;;;4957745;28;20031;-71
2022/02/28 11:07:42;;;;;;;4.15;2.50;;;14.00;41.40;;;;;;4958339;28;20026;-68
2022/02/28 11:10:10;;;;;;;11.02;2.80;;;14.10;41.40;;;;;;4975263;28;20062;-70
2022/02/28 11:12:36;;;;;;;5.32;2.88;;;14.20;41.70;;;;;;4975239;28;20045;-70
2022/02/28 11:15:07;;;;;;;7.63;3.33;;;14.30;41.80;;;;;;4975103;28;20050;-71
2022/02/28 11:17:35;;;;;;;5.72;2.30;;;14.40;41.40;;;;;;4975105;28;20026;-71
2022/02/28 11:20:08;;;;;;;9.52;2.85;;;14.50;41.50;;;;;;4974984;28;20477;-71
2022/02/28 11:22:35;;;;;;;6.25;2.50;;;14.60;40.90;;;;;;4974783;28;20444;-70
2022/02/28 11:25:03;;;;;;;5.93;3.22;;;14.60;40.80;;;;;;4974826;28;20035;-71
2022/02/28 11:27:29;;;;;;;6.75;2.72;;;14.60;40.40;;;;;;4974805;28;20097;-70
2022/02/28 11:30:18;;;;;;;5.70;2.40;;;14.70;40.20;;;;;;4974632;28;20451;-71
2022/02/28 11:32:51;;;;;;;4.88;2.60;;;14.70;39.80;;;;;;4957493;28;20058;-69
2022/02/28 11:35:43;;;;;;;7.50;3.28;;;14.70;39.90;;;;;;4974789;28;20092;-71
2022/02/28 11:38:31;;;;;;;5.18;3.20;;;14.80;38.80;;;;;;4974495;28;20097;-70
2022/02/28 11:41:03;;;;;;;5.28;2.85;;;14.90;40.10;;;;;;4974212;28;20057;-71
2022/02/28 11:43:37;;;;;;;4.75;2.45;;;15.00;40.20;;;;;;4974600;28;20065;-70
2022/02/28 11:46:05;;;;;;;8.45;3.40;;;15.10;38.90;;;;;;4974256;28;20444;-70
2022/02/28 11:48:35;;;;;;;6.63;2.95;;;15.10;40.70;;;;;;4974015;28;20114;-70
2022/02/28 11:51:07;;;;;;;6.35;3.15;;;15.20;40.20;;;;;;4974188;28;20455;-70
2022/02/28 11:53:45;;;;;;;4.63;2.33;;;15.30;40.00;;;;;;4973320;28;20023;-71
2022/02/28 11:56:17;;;;;;;6.95;2.72;;;15.20;37.60;;;;;;4974331;28;20019;-70
2022/02/28 11:58:51;;;;;;;5.68;2.60;;;15.20;39.10;;;;;;4974316;28;20030;-69
2022/02/28 12:01:18;;;;;;;7.97;2.60;;;15.20;39.30;;;;;;4974261;28;20030;-70
2022/02/28 12:04:10;;;;;;;5.78;2.45;;;15.20;38.60;;;;;;4974164;28;20026;-71
2022/02/28 12:07:02;;;;;;;5.38;2.75;;;15.30;39.10;;;;;;4974172;28;20057;-73
2022/02/28 12:09:37;;;;;;;6.25;2.67;;;15.50;37.90;;;;;;4956393;28;20058;-71
2022/02/28 12:12:15;;;;;;;11.00;2.88;;;15.50;37.60;;;;;;4974377;28;20038;-72
2022/02/28 12:15:03;;;;;;;5.75;2.60;;;15.60;37.20;;;;;;4974028;28;20059;-70
2022/02/28 12:17:35;;;;;;;6.00;3.25;;;15.80;38.10;;;;;;4973894;28;20035;-71
2022/02/28 12:20:13;;;;;;;6.43;3.10;;;15.90;38.80;;;;;;4974069;28;20026;-70
2022/02/28 12:22:58;;;;;;;6.18;2.40;;;15.90;38.10;;;;;;4973639;28;20154;-70
2022/02/28 12:25:37;;;;;;;4.15;2.53;;;15.80;36.70;;;;;;4973979;28;20110;-71
2022/02/28 12:28:25;;;;;;;7.68;3.10;;;15.90;37.90;;;;;;4974032;28;20524;-70
2022/02/28 12:31:08;;;;;;;6.72;2.97;;;15.90;37.20;;;;;;4973874;28;20523;-71
2022/02/28 12:33:33;;;;;;;7.30;2.87;;;16.00;38.70;;;;;;4973880;28;20373;-70
2022/02/28 12:36:02;;;;;;;7.47;2.55;;;16.10;38.20;;;;;;4973686;28;20033;-72
2022/02/28 12:38:30;;;;;;;6.53;2.65;;;16.10;38.30;;;;;;4973656;28;20073;-71
2022/02/28 12:40:59;;;;;;;5.63;2.95;;;16.20;38.30;;;;;;4973570;28;20038;-72
2022/02/28 12:43:27;;;;;;;5.38;2.50;;;16.20;38.30;;;;;;4973628;28;20019;-70
2022/02/28 12:45:56;;;;;;;4.13;2.22;;;16.20;37.10;;;;;;4973381;28;20031;-71
2022/02/28 12:48:24;;;;;;;5.78;3.38;;;16.20;37.20;;;;;;4955951;28;20086;-70
2022/02/28 12:51:02;;;;;;;6.30;3.25;;;16.20;37.50;;;;;;4973038;28;20125;-73